Time;durP1;ratioP1;P1;durP2;ratioP2;P2;SDS_P1;SDS_P2;PMS_P1;PMS_P2;Temp;Humidity;BMP_temperature;BMP_pressure;BME280_temperature;BME280_humidity;BME280_pressure;Samples;Min_cycle;Max_cycle;Signal;HPM_P1;HPM_P2
2022/04/24 00:00:05;;;;;;;14.30;6.00;;;28.00;90.90;;;;;;5088902;28;20020;-48
2022/04/24 00:02:32;;;;;;;14.63;5.60;;;28.00;91.10;;;;;;5072461;28;20024;-56
2022/04/24 00:04:59;;;;;;;9.15;6.18;;;28.00;91.00;;;;;;5107201;28;20106;-47
2022/04/24 00:07:27;;;;;;;9.63;6.22;;;28.00;91.00;;;;;;5105981;28;20016;-52
2022/04/24 00:09:54;;;;;;;13.10;6.25;;;28.00;91.10;;;;;;5109978;27;20054;-49
2022/04/24 00:12:20;;;;;;;9.48;5.70;;;28.00;91.10;;;;;;5117458;28;20036;-51
2022/04/24 00:14:48;;;;;;;9.00;5.10;;;28.00;91.10;;;;;;5088781;28;20023;-47
2022/04/24 00:17:20;;;;;;;6.95;4.60;;;28.00;91.10;;;;;;5108147;28;20350;-53
2022/04/24 00:19:59;;;;;;;7.65;4.35;;;28.00;91.20;;;;;;5106707;28;20032;-49
2022/04/24 00:22:25;;;;;;;10.05;6.63;;;27.90;91.20;;;;;;5112105;27;20036;-58
2022/04/24 00:24:54;;;;;;;12.25;8.50;;;27.90;91.30;;;;;;5146429;27;20029;-49
2022/04/24 00:27:22;;;;;;;13.23;10.32;;;27.90;91.10;;;;;;5112496;27;20094;-48
2022/04/24 00:29:51;;;;;;;11.63;9.98;;;28.00;91.00;;;;;;5147688;27;20185;-46
2022/04/24 00:32:18;;;;;;;15.65;11.52;;;27.90;90.90;;;;;;5147278;27;20094;-49
2022/04/24 00:34:46;;;;;;;13.65;10.38;;;27.90;90.90;;;;;;5129272;27;20323;-48
2022/04/24 00:37:12;;;;;;;15.68;8.20;;;27.90;90.90;;;;;;5111736;27;20073;-47
2022/04/24 00:39:39;;;;;;;10.23;6.80;;;27.80;90.90;;;;;;5146179;27;20031;-50
2022/04/24 00:42:12;;;;;;;12.50;6.03;;;27.90;90.70;;;;;;5136238;27;20039;-51
2022/04/24 00:44:39;;;;;;;10.70;4.93;;;27.90;90.80;;;;;;5120870;28;20087;-47
2022/04/24 00:47:25;;;;;;;8.75;4.88;;;27.90;90.70;;;;;;5094089;28;20347;-50
2022/04/24 00:49:53;;;;;;;11.02;5.10;;;27.90;90.60;;;;;;5126842;28;20038;-52
2022/04/24 00:52:20;;;;;;;9.13;5.68;;;27.90;90.40;;;;;;5126169;28;20035;-52
2022/04/24 00:54:47;;;;;;;15.43;6.13;;;27.90;90.50;;;;;;5108339;27;20026;-56
2022/04/24 00:57:14;;;;;;;9.02;5.55;;;27.90;90.30;;;;;;5085226;28;20043;-52
2022/04/24 00:59:45;;;;;;;8.68;5.32;;;27.90;90.20;;;;;;5071452;28;20142;-52
2022/04/24 01:02:15;;;;;;;8.10;5.00;;;27.90;90.20;;;;;;5055137;28;20321;-53
2022/04/24 01:04:43;;;;;;;10.10;5.25;;;27.90;90.10;;;;;;5105637;28;20324;-56
2022/04/24 01:07:11;;;;;;;8.32;5.15;;;27.90;90.10;;;;;;5126891;27;20023;-54
2022/04/24 01:09:42;;;;;;;7.68;5.18;;;27.90;90.10;;;;;;5127900;27;20039;-53
2022/04/24 01:12:09;;;;;;;7.68;5.40;;;27.90;90.10;;;;;;5103985;28;20032;-53
2022/04/24 01:14:37;;;;;;;9.82;6.35;;;27.90;90.10;;;;;;5118285;28;20027;-47
2022/04/24 01:17:08;;;;;;;9.77;5.75;;;27.90;90.10;;;;;;5090363;28;20246;-47
2022/04/24 01:19:38;;;;;;;7.22;5.35;;;27.90;90.20;;;;;;5086963;28;20032;-48
2022/04/24 01:22:06;;;;;;;8.07;5.07;;;27.90;90.10;;;;;;5105129;28;20251;-50
2022/04/24 01:24:47;;;;;;;11.40;5.28;;;27.90;90.20;;;;;;5091588;27;20072;-55
2022/04/24 01:27:15;;;;;;;7.53;4.97;;;27.80;90.10;;;;;;5139960;27;20215;-46
2022/04/24 01:29:52;;;;;;;5.78;4.65;;;27.80;90.20;;;;;;5146524;27;20249;-51
2022/04/24 01:32:25;;;;;;;7.38;5.05;;;27.80;90.10;;;;;;5145397;27;20498;-49
2022/04/24 01:34:53;;;;;;;8.40;5.35;;;27.80;90.10;;;;;;5144777;27;20043;-54
2022/04/24 01:37:21;;;;;;;11.75;5.30;;;27.90;90.00;;;;;;5144803;27;20030;-56
2022/04/24 01:39:56;;;;;;;8.07;5.15;;;27.90;90.00;;;;;;5144728;27;20220;-54
2022/04/24 01:42:24;;;;;;;10.52;5.05;;;27.90;89.90;;;;;;5126871;27;20039;-55
2022/04/24 01:44:55;;;;;;;8.05;5.28;;;27.90;89.90;;;;;;5144503;27;20027;-59
2022/04/24 01:47:32;;;;;;;7.20;4.75;;;27.90;89.80;;;;;;5142849;27;20110;-54
2022/04/24 01:50:19;;;;;;;7.13;5.00;;;27.90;89.70;;;;;;5086744;28;20041;-55
2022/04/24 01:52:46;;;;;;;7.90;4.75;;;27.90;89.50;;;;;;5084481;28;20115;-56
2022/04/24 01:55:13;;;;;;;8.57;4.70;;;27.90;89.40;;;;;;5083933;28;20036;-57
2022/04/24 01:57:40;;;;;;;5.55;4.32;;;27.90;89.30;;;;;;5068215;28;20370;-56
2022/04/24 02:00:08;;;;;;;8.73;4.40;;;27.90;89.00;;;;;;5085712;28;20036;-47
2022/04/24 02:02:34;;;;;;;9.40;4.28;;;27.90;89.00;;;;;;5085138;28;20043;-48
2022/04/24 02:05:05;;;;;;;8.90;4.28;;;27.90;88.80;;;;;;5102688;28;20024;-48
2022/04/24 02:07:35;;;;;;;8.02;4.22;;;27.90;88.40;;;;;;5102504;28;20058;-56
2022/04/24 02:10:05;;;;;;;7.25;4.82;;;27.90;88.60;;;;;;5086182;28;20074;-52
2022/04/24 02:12:39;;;;;;;7.88;4.53;;;27.80;88.30;;;;;;5084986;28;20073;-48
2022/04/24 02:15:13;;;;;;;7.45;4.68;;;27.80;88.00;;;;;;5102496;28;20047;-48
2022/04/24 02:17:44;;;;;;;6.90;4.82;;;27.80;87.90;;;;;;5102631;28;20036;-55
2022/04/24 02:20:12;;;;;;;9.35;5.22;;;27.90;88.00;;;;;;5102348;28;20027;-48
2022/04/24 02:22:41;;;;;;;6.25;4.45;;;27.90;87.80;;;;;;5102521;28;20061;-50
2022/04/24 02:25:09;;;;;;;7.13;4.35;;;27.90;87.50;;;;;;5101959;28;20028;-54
2022/04/24 02:27:36;;;;;;;7.70;4.60;;;27.90;87.40;;;;;;5121934;27;20043;-56
2022/04/24 02:30:09;;;;;;;8.93;4.82;;;28.00;87.70;;;;;;5127091;27;20035;-55
2022/04/24 02:32:38;;;;;;;8.13;4.68;;;28.00;87.60;;;;;;5144928;27;20052;-53
2022/04/24 02:35:06;;;;;;;10.13;5.20;;;28.00;87.60;;;;;;5127188;27;20076;-55
2022/04/24 02:37:34;;;;;;;6.22;4.50;;;28.00;87.40;;;;;;5126287;27;20026;-55
2022/04/24 02:40:02;;;;;;;6.72;4.65;;;28.00;87.50;;;;;;5145404;27;20019;-57
2022/04/24 02:42:34;;;;;;;6.45;4.95;;;28.00;87.40;;;;;;5145080;27;20064;-54
2022/04/24 02:45:04;;;;;;;7.85;4.30;;;27.90;87.50;;;;;;5127020;28;20019;-49
2022/04/24 02:47:34;;;;;;;10.73;4.68;;;27.90;87.40;;;;;;5126764;28;20043;-47
2022/04/24 02:50:01;;;;;;;6.07;4.82;;;27.90;87.30;;;;;;5145390;27;20027;-49
2022/04/24 02:52:31;;;;;;;6.28;4.85;;;27.90;87.50;;;;;;5142972;28;20035;-54
2022/04/24 02:55:04;;;;;;;9.07;4.90;;;27.90;87.90;;;;;;5126810;28;20224;-53
2022/04/24 02:57:34;;;;;;;6.32;4.45;;;27.90;87.80;;;;;;5109684;28;20079;-51
2022/04/24 03:00:03;;;;;;;8.43;4.60;;;27.90;87.70;;;;;;5145090;28;20030;-47
2022/04/24 03:02:44;;;;;;;5.72;4.72;;;27.90;87.90;;;;;;5127122;28;20019;-57
2022/04/24 03:05:17;;;;;;;6.53;4.70;;;27.90;87.80;;;;;;5144585;28;20031;-48
2022/04/24 03:07:44;;;;;;;7.45;4.70;;;27.90;88.20;;;;;;5144724;28;20023;-49
2022/04/24 03:10:13;;;;;;;7.13;4.82;;;27.90;88.20;;;;;;5143915;28;20046;-51
2022/04/24 03:12:42;;;;;;;8.05;4.78;;;27.90;88.40;;;;;;5108985;28;20019;-47
2022/04/24 03:15:12;;;;;;;8.20;4.78;;;27.90;88.40;;;;;;5145094;28;20027;-47
2022/04/24 03:17:41;;;;;;;8.10;4.68;;;27.80;88.40;;;;;;5126030;28;20035;-47
2022/04/24 03:20:09;;;;;;;8.57;4.80;;;27.80;88.10;;;;;;5144896;28;20034;-51
2022/04/24 03:22:36;;;;;;;7.93;4.65;;;27.80;87.70;;;;;;5144638;28;20176;-49
2022/04/24 03:25:05;;;;;;;6.65;4.35;;;27.80;87.70;;;;;;5145079;28;20027;-50
2022/04/24 03:27:32;;;;;;;10.02;4.53;;;27.80;87.90;;;;;;5126135;28;20084;-47
2022/04/24 03:30:03;;;;;;;7.13;4.40;;;27.80;87.80;;;;;;5145069;28;20026;-54
2022/04/24 03:32:33;;;;;;;6.50;4.15;;;27.80;87.80;;;;;;5144579;28;20026;-48
2022/04/24 03:35:01;;;;;;;10.05;5.00;;;27.80;88.00;;;;;;5126152;28;20339;-49
2022/04/24 03:37:30;;;;;;;7.35;4.43;;;27.80;88.00;;;;;;5143937;28;20050;-50
2022/04/24 03:39:59;;;;;;;6.88;4.45;;;27.80;88.10;;;;;;5126225;28;20026;-50
2022/04/24 03:42:26;;;;;;;7.50;4.40;;;27.80;88.00;;;;;;5144505;28;20015;-49
2022/04/24 03:44:58;;;;;;;6.03;4.22;;;27.80;88.20;;;;;;5144739;28;20027;-52
2022/04/24 03:47:29;;;;;;;9.35;4.55;;;27.80;88.30;;;;;;5126017;28;20023;-51
2022/04/24 03:49:56;;;;;;;7.43;4.50;;;27.80;88.40;;;;;;5109801;28;20047;-56
2022/04/24 03:52:23;;;;;;;8.52;4.00;;;27.80;88.40;;;;;;5144471;28;20062;-46
2022/04/24 03:54:49;;;;;;;11.00;5.72;;;27.80;88.60;;;;;;5144277;28;20023;-49
2022/04/24 03:57:16;;;;;;;7.72;5.88;;;27.80;88.60;;;;;;5127482;27;20243;-49
2022/04/24 03:59:43;;;;;;;11.07;6.38;;;27.80;88.70;;;;;;5148428;27;20027;-51
2022/04/24 04:02:09;;;;;;;10.35;5.60;;;27.80;88.60;;;;;;5148117;27;20015;-53
2022/04/24 04:04:36;;;;;;;6.65;5.20;;;27.80;88.50;;;;;;5148289;27;20038;-45
2022/04/24 04:07:03;;;;;;;8.32;5.07;;;27.80;88.60;;;;;;5147771;27;20038;-50
2022/04/24 04:09:32;;;;;;;8.32;4.80;;;27.80;88.70;;;;;;5128907;27;20025;-47
2022/04/24 04:11:58;;;;;;;8.40;4.97;;;27.80;88.70;;;;;;5147842;27;20023;-50
2022/04/24 04:14:25;;;;;;;6.32;4.65;;;27.80;88.50;;;;;;5147995;27;20022;-52
2022/04/24 04:16:53;;;;;;;12.05;7.13;;;27.80;88.50;;;;;;5147617;27;20075;-46
2022/04/24 04:19:19;;;;;;;19.60;15.68;;;27.80;88.50;;;;;;5147550;27;20324;-53
2022/04/24 04:21:47;;;;;;;20.27;16.23;;;27.80;88.40;;;;;;5147524;27;20327;-47
2022/04/24 04:24:14;;;;;;;16.30;12.50;;;27.80;88.50;;;;;;5147286;27;20050;-47
2022/04/24 04:26:41;;;;;;;12.57;9.05;;;27.80;88.70;;;;;;5147459;27;20053;-46
2022/04/24 04:29:08;;;;;;;10.93;7.68;;;27.80;88.70;;;;;;5147812;27;20023;-46
2022/04/24 04:31:35;;;;;;;10.43;7.07;;;27.80;88.50;;;;;;5147355;27;20082;-47
2022/04/24 04:34:01;;;;;;;10.85;7.57;;;27.80;88.50;;;;;;5147512;27;20267;-52
2022/04/24 04:36:28;;;;;;;27.30;20.67;;;27.80;88.50;;;;;;5147606;27;20019;-46
2022/04/24 04:38:55;;;;;;;43.42;32.17;;;27.80;88.30;;;;;;5147134;27;20147;-46
2022/04/24 04:41:22;;;;;;;38.03;25.50;;;27.80;88.50;;;;;;5147214;27;20335;-49
2022/04/24 04:43:48;;;;;;;36.42;25.23;;;27.80;88.90;;;;;;5147460;27;20064;-47
2022/04/24 04:46:15;;;;;;;37.10;25.00;;;27.80;89.30;;;;;;5147063;27;20014;-52
2022/04/24 04:48:41;;;;;;;36.35;27.50;;;27.80;89.20;;;;;;5147302;27;20042;-46
2022/04/24 04:51:08;;;;;;;26.88;19.63;;;27.80;89.30;;;;;;5147039;27;20047;-48
2022/04/24 04:53:35;;;;;;;32.72;23.13;;;27.80;89.70;;;;;;5147052;27;20308;-49
2022/04/24 04:56:01;;;;;;;36.83;26.88;;;27.80;89.80;;;;;;5146896;27;20091;-55
2022/04/24 04:58:28;;;;;;;39.05;26.35;;;27.70;90.10;;;;;;5146919;27;20055;-49
2022/04/24 05:00:55;;;;;;;35.28;25.77;;;27.70;89.90;;;;;;5146929;27;20079;-49
2022/04/24 05:03:22;;;;;;;28.27;19.08;;;27.70;89.80;;;;;;5146639;27;20126;-46
2022/04/24 05:05:49;;;;;;;19.85;14.20;;;27.70;90.10;;;;;;5146740;27;20116;-46
2022/04/24 05:08:15;;;;;;;16.33;11.52;;;27.70;90.20;;;;;;5145716;27;20098;-49
2022/04/24 05:10:42;;;;;;;11.30;7.30;;;27.70;90.10;;;;;;5146555;27;20038;-49
2022/04/24 05:13:09;;;;;;;15.00;9.77;;;27.60;90.10;;;;;;5146640;27;20086;-50
2022/04/24 05:15:35;;;;;;;12.40;8.52;;;27.60;90.30;;;;;;5146518;27;20026;-47
2022/04/24 05:18:02;;;;;;;9.77;7.18;;;27.70;90.30;;;;;;5146265;27;20030;-49
2022/04/24 05:20:28;;;;;;;13.48;7.32;;;27.60;90.20;;;;;;5146517;27;20047;-49
2022/04/24 05:23:07;;;;;;;11.95;6.60;;;27.60;90.30;;;;;;5146391;27;20019;-46
2022/04/24 05:25:34;;;;;;;7.57;5.43;;;27.60;90.20;;;;;;5146408;27;20330;-49
2022/04/24 05:28:01;;;;;;;10.98;6.07;;;27.60;90.30;;;;;;5146592;27;20303;-46
2022/04/24 05:30:28;;;;;;;10.00;5.47;;;27.60;90.30;;;;;;5146087;27;20080;-52
2022/04/24 05:32:56;;;;;;;8.15;5.50;;;27.60;90.20;;;;;;5146213;27;20319;-49
2022/04/24 05:35:22;;;;;;;9.15;6.90;;;27.60;90.30;;;;;;5146579;27;20066;-49
2022/04/24 05:37:49;;;;;;;13.35;6.90;;;27.60;90.30;;;;;;5145962;27;20038;-51
2022/04/24 05:40:17;;;;;;;11.25;7.15;;;27.60;90.30;;;;;;5146452;27;20049;-51
2022/04/24 05:42:55;;;;;;;10.15;6.55;;;27.60;90.40;;;;;;5145944;27;20019;-49
2022/04/24 05:45:24;;;;;;;13.20;6.22;;;27.60;90.30;;;;;;5146270;27;20034;-47
2022/04/24 05:47:54;;;;;;;14.00;5.97;;;27.60;90.00;;;;;;5145906;27;20072;-48
2022/04/24 05:50:23;;;;;;;8.20;5.80;;;27.60;89.70;;;;;;5146286;27;20035;-50
2022/04/24 05:52:50;;;;;;;8.27;5.07;;;27.60;89.20;;;;;;5145730;27;20320;-49
2022/04/24 05:55:18;;;;;;;9.23;5.07;;;27.60;88.90;;;;;;5146030;27;20312;-48
2022/04/24 05:57:44;;;;;;;6.43;4.80;;;27.50;88.40;;;;;;5145693;27;20023;-46
2022/04/24 06:00:12;;;;;;;10.40;4.68;;;27.60;88.20;;;;;;5146062;27;20068;-49
2022/04/24 06:02:40;;;;;;;7.95;4.55;;;27.60;88.10;;;;;;5145662;27;20066;-50
2022/04/24 06:05:08;;;;;;;8.07;4.85;;;27.60;87.90;;;;;;5145500;27;20031;-52
2022/04/24 06:07:35;;;;;;;8.13;5.03;;;27.60;87.60;;;;;;5146153;27;20018;-51
2022/04/24 06:10:01;;;;;;;5.60;4.32;;;27.60;87.60;;;;;;5146162;27;20038;-53
2022/04/24 06:12:28;;;;;;;8.30;4.88;;;27.60;87.40;;;;;;5145618;27;20035;-47
2022/04/24 06:14:54;;;;;;;8.73;4.72;;;27.50;87.20;;;;;;5145702;27;20023;-47
2022/04/24 06:17:21;;;;;;;8.20;4.80;;;27.50;86.80;;;;;;5145405;27;20331;-48
2022/04/24 06:19:47;;;;;;;6.25;4.65;;;27.50;86.80;;;;;;5145580;27;20139;-48
2022/04/24 06:22:14;;;;;;;7.10;4.70;;;27.50;86.70;;;;;;5145265;27;20022;-52
2022/04/24 06:24:41;;;;;;;9.88;4.78;;;27.50;86.90;;;;;;5145287;27;20015;-50
2022/04/24 06:27:07;;;;;;;8.63;4.70;;;27.50;86.90;;;;;;5145503;27;20027;-58
2022/04/24 06:29:34;;;;;;;11.98;4.63;;;27.50;86.70;;;;;;5145489;27;20023;-46
2022/04/24 06:32:01;;;;;;;8.85;4.80;;;27.50;86.80;;;;;;5145345;27;20107;-47
2022/04/24 06:34:27;;;;;;;9.52;4.95;;;27.50;86.50;;;;;;5145406;27;20042;-48
2022/04/24 06:36:54;;;;;;;7.38;4.80;;;27.50;86.70;;;;;;5145089;27;20019;-46
2022/04/24 06:39:20;;;;;;;8.43;4.95;;;27.40;86.60;;;;;;5145309;27;20080;-48
2022/04/24 06:41:47;;;;;;;9.13;4.97;;;27.40;87.00;;;;;;5145130;27;20034;-49
2022/04/24 06:44:13;;;;;;;8.13;4.70;;;27.40;87.30;;;;;;5145150;27;20019;-49
2022/04/24 06:46:40;;;;;;;8.27;5.55;;;27.40;87.70;;;;;;5145168;27;20052;-50
2022/04/24 06:49:07;;;;;;;8.45;5.00;;;27.40;87.50;;;;;;5144857;27;20094;-46
2022/04/24 06:51:33;;;;;;;7.25;4.93;;;27.40;87.50;;;;;;5144877;28;20011;-46
2022/04/24 06:54:00;;;;;;;8.05;5.30;;;27.40;87.80;;;;;;5145318;28;20027;-50
2022/04/24 06:56:26;;;;;;;11.45;5.40;;;27.40;88.00;;;;;;5144842;28;20043;-54
2022/04/24 06:58:53;;;;;;;8.98;4.70;;;27.30;88.00;;;;;;5144827;28;20035;-50
2022/04/24 07:01:21;;;;;;;7.63;5.32;;;27.30;87.80;;;;;;5144976;28;20090;-51
2022/04/24 07:03:48;;;;;;;9.50;4.95;;;27.30;87.90;;;;;;5144918;28;20329;-46
2022/04/24 07:06:14;;;;;;;6.93;4.85;;;27.30;88.20;;;;;;5144584;28;20238;-48
2022/04/24 07:08:41;;;;;;;11.38;5.80;;;27.30;88.00;;;;;;5144872;28;20023;-47
2022/04/24 07:11:08;;;;;;;7.55;5.10;;;27.30;88.50;;;;;;5144754;28;20031;-47
2022/04/24 07:13:36;;;;;;;7.25;4.82;;;27.30;88.90;;;;;;5144937;28;20350;-50
2022/04/24 07:16:03;;;;;;;10.90;5.10;;;27.30;88.90;;;;;;5144702;28;20027;-47
2022/04/24 07:18:30;;;;;;;9.70;5.45;;;27.30;88.70;;;;;;5144585;28;20094;-49
2022/04/24 07:20:58;;;;;;;7.88;5.15;;;27.30;89.10;;;;;;5144794;28;20026;-51
2022/04/24 07:23:24;;;;;;;8.95;5.30;;;27.30;89.40;;;;;;5144490;28;20042;-49
2022/04/24 07:25:51;;;;;;;10.77;5.78;;;27.30;89.70;;;;;;5144640;28;20098;-50
2022/04/24 07:28:19;;;;;;;10.18;5.90;;;27.30;90.00;;;;;;5132440;28;20019;-49
2022/04/24 07:30:46;;;;;;;10.70;5.55;;;27.30;90.10;;;;;;5111779;28;20040;-49
2022/04/24 07:33:13;;;;;;;9.10;5.53;;;27.30;90.10;;;;;;5131779;27;20054;-48
2022/04/24 07:35:41;;;;;;;8.98;5.93;;;27.30;90.10;;;;;;5128034;28;20189;-46
2022/04/24 07:38:08;;;;;;;9.77;6.07;;;27.40;90.20;;;;;;5127632;28;20043;-53
2022/04/24 07:40:36;;;;;;;11.95;5.50;;;27.30;90.20;;;;;;5127917;28;20025;-49
2022/04/24 07:43:05;;;;;;;9.73;5.90;;;27.40;90.20;;;;;;5127728;28;20020;-47
2022/04/24 07:45:38;;;;;;;9.70;5.40;;;27.40;90.20;;;;;;5127975;28;20030;-48
2022/04/24 07:48:06;;;;;;;7.65;4.90;;;27.40;90.30;;;;;;5127642;28;20346;-49
2022/04/24 07:50:38;;;;;;;8.70;5.55;;;27.30;90.20;;;;;;5126368;27;20039;-44
2022/04/24 07:53:06;;;;;;;6.70;4.68;;;27.30;90.20;;;;;;5116684;28;20035;-50
2022/04/24 07:55:33;;;;;;;9.30;5.10;;;27.40;90.30;;;;;;5127411;28;20044;-52
2022/04/24 07:58:00;;;;;;;10.43;5.13;;;27.30;90.20;;;;;;5133027;27;20042;-48
2022/04/24 08:00:32;;;;;;;8.20;4.85;;;27.30;90.30;;;;;;5140381;27;20019;-51
2022/04/24 08:03:06;;;;;;;7.60;5.10;;;27.30;90.50;;;;;;5148176;27;20015;-46
2022/04/24 08:05:37;;;;;;;7.07;5.25;;;27.40;90.60;;;;;;5148030;27;20354;-48
2022/04/24 08:08:10;;;;;;;8.82;5.50;;;27.30;90.70;;;;;;5148063;27;20050;-51
2022/04/24 08:10:39;;;;;;;12.80;5.85;;;27.30;90.70;;;;;;5147762;27;20056;-47
2022/04/24 08:13:07;;;;;;;9.55;5.47;;;27.20;90.80;;;;;;5147746;27;20019;-49
2022/04/24 08:15:34;;;;;;;9.43;5.57;;;27.30;91.00;;;;;;5147772;27;20055;-50
2022/04/24 08:18:01;;;;;;;8.27;4.93;;;27.20;91.00;;;;;;5147623;27;20065;-51
2022/04/24 08:20:29;;;;;;;12.55;5.50;;;27.20;91.10;;;;;;5147863;27;20031;-52
2022/04/24 08:22:59;;;;;;;8.63;5.70;;;27.30;91.10;;;;;;5147712;27;20338;-48
2022/04/24 08:25:27;;;;;;;10.05;5.25;;;27.30;91.00;;;;;;5147377;27;20020;-49
2022/04/24 08:27:55;;;;;;;9.18;5.60;;;27.30;91.00;;;;;;5129842;27;20319;-46
2022/04/24 08:30:23;;;;;;;10.90;5.60;;;27.30;90.90;;;;;;5148062;27;20039;-47
2022/04/24 08:32:51;;;;;;;8.40;5.22;;;27.30;90.70;;;;;;5147494;27;20031;-49
2022/04/24 08:35:19;;;;;;;8.93;5.57;;;27.20;90.50;;;;;;5147999;27;20076;-48
2022/04/24 08:37:47;;;;;;;5.80;5.15;;;27.20;90.50;;;;;;5147198;27;20058;-50
2022/04/24 08:40:16;;;;;;;8.25;5.22;;;27.30;90.40;;;;;;5147882;27;20062;-52
2022/04/24 08:42:42;;;;;;;7.90;4.68;;;27.20;90.30;;;;;;5147331;27;20033;-51
2022/04/24 08:45:12;;;;;;;9.82;5.53;;;27.20;90.10;;;;;;5147659;27;20098;-46
2022/04/24 08:47:39;;;;;;;7.53;4.88;;;27.20;90.00;;;;;;5147222;27;20023;-48
2022/04/24 08:50:06;;;;;;;9.50;5.10;;;27.20;89.70;;;;;;5147538;27;20326;-47
2022/04/24 08:52:33;;;;;;;8.20;5.22;;;27.20;89.10;;;;;;5147017;27;20069;-48
2022/04/24 08:55:00;;;;;;;8.80;5.28;;;27.20;89.20;;;;;;5147349;27;20311;-53
2022/04/24 08:57:27;;;;;;;8.18;5.00;;;27.20;88.90;;;;;;5147116;27;20308;-51
2022/04/24 08:59:54;;;;;;;6.40;5.40;;;27.30;88.90;;;;;;5147278;27;20058;-48
2022/04/24 09:02:21;;;;;;;7.63;5.35;;;27.30;88.50;;;;;;5146817;27;20027;-49
2022/04/24 09:04:48;;;;;;;6.43;5.03;;;27.30;88.50;;;;;;5147284;27;20367;-46
2022/04/24 09:07:17;;;;;;;9.30;5.32;;;27.30;88.30;;;;;;5146806;27;20038;-46
2022/04/24 09:09:49;;;;;;;6.82;4.80;;;27.30;88.30;;;;;;5147151;27;20019;-46
2022/04/24 09:12:28;;;;;;;8.65;5.15;;;27.20;87.90;;;;;;5146827;27;20011;-50
2022/04/24 09:14:57;;;;;;;8.00;5.00;;;27.20;88.10;;;;;;5146956;27;20034;-54
2022/04/24 09:17:32;;;;;;;7.63;5.25;;;27.30;88.10;;;;;;5146430;27;20316;-46
2022/04/24 09:20:00;;;;;;;9.23;5.47;;;27.20;87.70;;;;;;5146550;27;20031;-43
2022/04/24 09:22:27;;;;;;;10.05;5.55;;;27.20;87.50;;;;;;5146587;27;20254;-47
2022/04/24 09:25:01;;;;;;;8.85;5.38;;;27.30;87.50;;;;;;5146924;27;20031;-47
2022/04/24 09:27:32;;;;;;;7.57;5.03;;;27.30;87.20;;;;;;5146557;27;20208;-50
2022/04/24 09:30:20;;;;;;;8.60;5.30;;;27.30;87.10;;;;;;5146785;27;20252;-47
2022/04/24 09:32:57;;;;;;;11.60;5.38;;;27.30;87.40;;;;;;5146152;27;20019;-51
2022/04/24 09:35:32;;;;;;;10.77;5.35;;;27.20;87.40;;;;;;5146790;27;20027;-50
2022/04/24 09:38:17;;;;;;;9.85;4.90;;;27.20;87.30;;;;;;5145843;27;20082;-48
2022/04/24 09:40:48;;;;;;;6.10;4.63;;;27.30;87.60;;;;;;5146188;27;20032;-48
2022/04/24 09:43:17;;;;;;;7.50;5.38;;;27.20;87.30;;;;;;5145927;27;20030;-51
2022/04/24 09:45:54;;;;;;;9.10;5.68;;;27.20;87.40;;;;;;5145979;27;20034;-52
2022/04/24 09:48:22;;;;;;;9.05;5.53;;;27.30;87.40;;;;;;5145876;27;20073;-54
2022/04/24 09:50:49;;;;;;;6.07;4.72;;;27.20;87.90;;;;;;5146032;27;20031;-47
2022/04/24 09:53:19;;;;;;;9.63;5.38;;;27.30;87.60;;;;;;5146004;27;20050;-53
2022/04/24 09:55:49;;;;;;;11.57;5.57;;;27.20;87.80;;;;;;5145014;27;20039;-60
2022/04/24 09:58:16;;;;;;;7.90;5.20;;;27.20;87.90;;;;;;5145961;27;20039;-47
2022/04/24 10:00:44;;;;;;;8.10;5.13;;;27.30;88.30;;;;;;5145833;27;20023;-51
2022/04/24 10:03:17;;;;;;;10.38;5.20;;;27.20;87.90;;;;;;5145496;27;20383;-48
2022/04/24 10:05:47;;;;;;;8.30;5.30;;;27.30;88.10;;;;;;5145574;27;20031;-46
2022/04/24 10:08:15;;;;;;;9.32;5.15;;;27.30;88.00;;;;;;5145618;27;20083;-46
2022/04/24 10:10:41;;;;;;;8.68;4.93;;;27.20;88.00;;;;;;5145637;27;20035;-55
2022/04/24 10:13:11;;;;;;;8.55;5.35;;;27.20;88.00;;;;;;5145453;27;20027;-48
2022/04/24 10:15:48;;;;;;;8.05;5.90;;;27.20;88.10;;;;;;5145426;27;20019;-47
2022/04/24 10:19:02;;;;;;;9.73;5.70;;;27.30;88.00;;;;;;5145506;27;20031;-50
2022/04/24 10:21:38;;;;;;;12.45;5.80;;;27.20;87.90;;;;;;5068375;27;20031;-52
2022/04/24 10:24:12;;;;;;;7.40;5.47;;;27.20;88.00;;;;;;5145416;27;20301;-50
2022/04/24 10:26:50;;;;;;;10.02;5.90;;;27.20;87.90;;;;;;5145545;27;20019;-53
2022/04/24 10:29:17;;;;;;;9.75;5.85;;;27.20;87.70;;;;;;5145554;27;20061;-54
2022/04/24 10:31:45;;;;;;;11.02;5.65;;;27.20;87.50;;;;;;5145201;27;20215;-49
2022/04/24 10:34:13;;;;;;;8.75;5.63;;;27.20;87.20;;;;;;5145518;27;20102;-48
2022/04/24 10:37:01;;;;;;;7.25;5.68;;;27.20;87.30;;;;;;5142128;27;20377;-47
2022/04/24 10:39:29;;;;;;;6.53;5.50;;;27.10;86.90;;;;;;5137786;27;20039;-54
2022/04/24 10:42:00;;;;;;;9.38;5.80;;;27.10;86.90;;;;;;5124524;28;20027;-47
2022/04/24 10:44:27;;;;;;;7.25;5.40;;;27.20;87.00;;;;;;5124415;28;20023;-50
2022/04/24 10:46:57;;;;;;;9.40;5.95;;;27.10;87.00;;;;;;5104179;28;20038;-49
2022/04/24 10:49:25;;;;;;;10.40;5.97;;;27.10;86.80;;;;;;5104138;28;20028;-48
2022/04/24 10:52:01;;;;;;;8.27;5.90;;;27.10;86.90;;;;;;5104043;28;20032;-50
2022/04/24 10:54:45;;;;;;;10.55;6.05;;;27.10;86.90;;;;;;5104245;28;20045;-49
2022/04/24 10:57:23;;;;;;;9.32;6.13;;;27.10;87.10;;;;;;5103822;28;20031;-50
2022/04/24 10:59:55;;;;;;;9.75;6.30;;;27.10;87.40;;;;;;5104281;28;20028;-50
2022/04/24 11:02:33;;;;;;;9.27;5.97;;;27.10;86.90;;;;;;5103900;28;20058;-51
2022/04/24 11:05:11;;;;;;;13.00;6.60;;;27.10;87.10;;;;;;5103809;28;20039;-51
2022/04/24 11:07:38;;;;;;;9.25;6.55;;;27.10;87.40;;;;;;5106701;28;20051;-50
2022/04/24 11:10:09;;;;;;;12.57;7.10;;;27.10;87.40;;;;;;5108397;28;20040;-47
2022/04/24 11:12:37;;;;;;;10.77;7.63;;;27.10;88.90;;;;;;5107759;28;20020;-51
2022/04/24 11:15:12;;;;;;;13.82;7.40;;;27.10;89.60;;;;;;5108332;28;20032;-48
2022/04/24 11:17:39;;;;;;;11.10;7.10;;;27.10;90.40;;;;;;5107909;28;20028;-50
2022/04/24 11:20:09;;;;;;;12.13;7.22;;;27.10;90.30;;;;;;5108202;28;20028;-49
2022/04/24 11:22:46;;;;;;;12.07;6.80;;;27.10;90.50;;;;;;5107745;28;20051;-47
2022/04/24 11:25:14;;;;;;;10.60;6.80;;;27.00;90.70;;;;;;5107517;28;20028;-46
2022/04/24 11:27:44;;;;;;;11.18;6.70;;;27.00;90.50;;;;;;5107692;28;20040;-46
2022/04/24 11:30:18;;;;;;;8.90;6.20;;;26.90;90.50;;;;;;5108084;28;20352;-49
2022/04/24 11:33:12;;;;;;;10.38;6.60;;;26.90;90.60;;;;;;5146430;27;20087;-48
2022/04/24 11:35:40;;;;;;;9.65;6.30;;;26.90;90.70;;;;;;5148900;27;20039;-50
2022/04/24 11:38:12;;;;;;;9.68;6.53;;;26.90;90.60;;;;;;5148280;27;20247;-51
2022/04/24 11:40:48;;;;;;;11.25;6.97;;;26.90;90.70;;;;;;5148501;27;20076;-53
2022/04/24 11:43:16;;;;;;;10.85;7.43;;;26.90;91.30;;;;;;5148295;27;20023;-52
2022/04/24 11:51:32;;;;;;;11.30;7.93;;;27.00;90.80;;;;;;5075097;27;20044;-51
2022/04/24 11:53:59;;;;;;;9.75;7.35;;;27.00;90.80;;;;;;5148400;27;20076;-53
2022/04/24 11:56:27;;;;;;;11.18;6.95;;;27.00;90.70;;;;;;5148076;27;20035;-51
2022/04/24 11:59:04;;;;;;;8.00;6.75;;;27.00;90.60;;;;;;5148148;27;20050;-50
2022/04/24 12:01:30;;;;;;;9.70;6.63;;;27.00;90.40;;;;;;5148039;27;20056;-50
2022/04/24 12:03:57;;;;;;;8.07;6.50;;;27.00;90.40;;;;;;5148283;27;20088;-49
2022/04/24 12:06:34;;;;;;;9.70;7.22;;;27.00;90.40;;;;;;5147913;27;20019;-45
2022/04/24 12:09:08;;;;;;;7.70;6.35;;;26.90;90.80;;;;;;5148044;27;20100;-47
2022/04/24 12:11:38;;;;;;;8.48;6.65;;;26.90;90.80;;;;;;5147759;27;20368;-52
2022/04/24 12:14:14;;;;;;;9.77;7.20;;;27.00;90.80;;;;;;5147952;27;20035;-48
2022/04/24 12:16:46;;;;;;;12.43;7.15;;;27.00;91.20;;;;;;5147629;27;20015;-50
2022/04/24 12:19:18;;;;;;;11.95;7.15;;;27.00;91.10;;;;;;5147432;27;20052;-48
2022/04/24 12:21:51;;;;;;;7.82;7.03;;;27.10;91.20;;;;;;5147657;27;20070;-49
2022/04/24 12:24:18;;;;;;;9.23;6.80;;;27.10;91.20;;;;;;5147738;27;20027;-51
2022/04/24 12:26:52;;;;;;;8.43;6.80;;;27.10;91.10;;;;;;5147551;27;20015;-51
2022/04/24 12:29:19;;;;;;;11.57;7.07;;;27.10;91.10;;;;;;5147793;27;20072;-47
2022/04/24 12:31:47;;;;;;;9.52;6.82;;;27.10;91.00;;;;;;5132571;27;20091;-50
2022/04/24 12:34:15;;;;;;;11.25;7.28;;;27.20;91.00;;;;;;5135057;27;20027;-50
2022/04/24 12:36:49;;;;;;;10.35;7.13;;;27.10;91.10;;;;;;5147476;27;20323;-47
2022/04/24 12:39:24;;;;;;;8.65;7.47;;;27.10;91.10;;;;;;5147374;27;20198;-49
2022/04/24 12:41:50;;;;;;;10.38;7.78;;;27.20;91.30;;;;;;5141731;27;20093;-48
2022/04/24 12:44:17;;;;;;;9.52;7.80;;;27.20;91.00;;;;;;5147022;27;20015;-56
2022/04/24 12:46:46;;;;;;;11.55;8.18;;;27.20;90.90;;;;;;5147159;27;20049;-45
2022/04/24 12:49:14;;;;;;;12.18;8.20;;;27.20;91.00;;;;;;5147367;27;20304;-56
2022/04/24 12:51:41;;;;;;;10.68;8.77;;;27.20;91.00;;;;;;5147225;27;20196;-51
2022/04/24 12:54:07;;;;;;;11.63;7.82;;;27.20;91.10;;;;;;5147414;27;20061;-49
2022/04/24 12:56:35;;;;;;;11.40;8.80;;;27.20;91.20;;;;;;5146836;27;20041;-50
2022/04/24 12:59:02;;;;;;;12.20;8.35;;;27.20;91.10;;;;;;5146959;27;20473;-46